sensor_id;sensor_type;location;lat;lon;timestamp;pressure;altitude;pressure_sealevel;temperature;humidity
77776;BME280;66965;43.328;6.668;2023-01-29T00:01:04;102060.38;;;6.21;54.77
77776;BME280;66965;43.328;6.668;2023-01-29T00:03:30;102058.00;;;6.35;55.05
77776;BME280;66965;43.328;6.668;2023-01-29T00:05:55;102059.44;;;6.16;56.03
77776;BME280;66965;43.328;6.668;2023-01-29T00:08:21;102059.03;;;5.92;56.66
77776;BME280;66965;43.328;6.668;2023-01-29T00:10:46;102060.97;;;6.04;57.30
77776;BME280;66965;43.328;6.668;2023-01-29T00:13:12;102059.56;;;6.24;56.49
77776;BME280;66965;43.328;6.668;2023-01-29T00:15:37;102057.34;;;5.95;56.58
77776;BME280;66965;43.328;6.668;2023-01-29T00:18:03;102055.19;;;6.21;56.23
77776;BME280;66965;43.328;6.668;2023-01-29T00:20:29;102061.09;;;6.13;55.38
77776;BME280;66965;43.328;6.668;2023-01-29T00:22:55;102057.72;;;6.17;54.63
77776;BME280;66965;43.328;6.668;2023-01-29T00:25:20;102057.31;;;6.46;54.35
77776;BME280;66965;43.328;6.668;2023-01-29T00:27:45;102057.13;;;6.34;53.73
77776;BME280;66965;43.328;6.668;2023-01-29T00:30:11;102054.00;;;6.55;53.92
77776;BME280;66965;43.328;6.668;2023-01-29T00:32:40;102048.69;;;6.50;54.33
77776;BME280;66965;43.328;6.668;2023-01-29T00:35:07;102057.38;;;6.49;53.66
77776;BME280;66965;43.328;6.668;2023-01-29T00:37:32;102051.19;;;6.43;53.78
77776;BME280;66965;43.328;6.668;2023-01-29T00:39:58;102057.16;;;6.36;54.59
77776;BME280;66965;43.328;6.668;2023-01-29T00:42:24;102055.44;;;6.36;54.60
77776;BME280;66965;43.328;6.668;2023-01-29T00:45:09;102056.31;;;6.38;56.06
77776;BME280;66965;43.328;6.668;2023-01-29T00:47:36;102056.38;;;6.41;56.32
77776;BME280;66965;43.328;6.668;2023-01-29T00:50:03;102055.00;;;6.11;56.73
77776;BME280;66965;43.328;6.668;2023-01-29T00:52:29;102052.19;;;5.98;56.98
77776;BME280;66965;43.328;6.668;2023-01-29T00:54:57;102059.09;;;5.96;55.82
77776;BME280;66965;43.328;6.668;2023-01-29T00:57:24;102054.19;;;5.67;56.18
77776;BME280;66965;43.328;6.668;2023-01-29T00:59:51;102056.03;;;5.74;56.90
77776;BME280;66965;43.328;6.668;2023-01-29T01:02:17;102059.97;;;5.97;55.67
77776;BME280;66965;43.328;6.668;2023-01-29T01:05:01;102061.41;;;5.83;56.32
77776;BME280;66965;43.328;6.668;2023-01-29T01:07:28;102061.91;;;6.09;55.37
77776;BME280;66965;43.328;6.668;2023-01-29T01:09:54;102066.94;;;5.98;55.87
77776;BME280;66965;43.328;6.668;2023-01-29T01:12:38;102062.22;;;5.79;56.03
77776;BME280;66965;43.328;6.668;2023-01-29T01:15:03;102059.69;;;5.82;57.04
77776;BME280;66965;43.328;6.668;2023-01-29T01:17:29;102058.97;;;5.90;55.97
77776;BME280;66965;43.328;6.668;2023-01-29T01:19:55;102062.34;;;5.85;57.17
77776;BME280;66965;43.328;6.668;2023-01-29T01:22:20;102064.53;;;5.64;57.39
77776;BME280;66965;43.328;6.668;2023-01-29T01:24:46;102070.53;;;5.60;57.43
77776;BME280;66965;43.328;6.668;2023-01-29T01:27:11;102069.97;;;5.76;57.50
77776;BME280;66965;43.328;6.668;2023-01-29T01:29:37;102071.03;;;5.85;57.65
77776;BME280;66965;43.328;6.668;2023-01-29T01:32:03;102072.84;;;5.89;57.38
77776;BME280;66965;43.328;6.668;2023-01-29T01:34:29;102070.38;;;5.97;56.85
77776;BME280;66965;43.328;6.668;2023-01-29T01:36:54;102076.34;;;5.90;57.62
77776;BME280;66965;43.328;6.668;2023-01-29T01:39:20;102075.53;;;5.94;56.81
77776;BME280;66965;43.328;6.668;2023-01-29T01:41:46;102072.22;;;6.04;56.95
77776;BME280;66965;43.328;6.668;2023-01-29T01:47:16;102078.13;;;5.92;57.38
77776;BME280;66965;43.328;6.668;2023-01-29T01:49:43;102083.22;;;5.88;56.27
77776;BME280;66965;43.328;6.668;2023-01-29T01:52:10;102087.00;;;6.05;56.26
77776;BME280;66965;43.328;6.668;2023-01-29T01:54:37;102087.94;;;5.64;57.63
77776;BME280;66965;43.328;6.668;2023-01-29T01:57:06;102093.22;;;5.25;57.18
77776;BME280;66965;43.328;6.668;2023-01-29T01:59:45;102085.34;;;5.20;58.28
77776;BME280;66965;43.328;6.668;2023-01-29T02:02:13;102082.81;;;5.23;57.92
77776;BME280;66965;43.328;6.668;2023-01-29T02:04:58;102088.06;;;5.26;57.34
77776;BME280;66965;43.328;6.668;2023-01-29T02:07:45;102089.75;;;5.24;57.80
77776;BME280;66965;43.328;6.668;2023-01-29T02:10:36;102088.47;;;5.04;58.01
77776;BME280;66965;43.328;6.668;2023-01-29T02:13:04;102084.50;;;5.21;57.77
77776;BME280;66965;43.328;6.668;2023-01-29T02:15:30;102082.00;;;5.27;57.90
77776;BME280;66965;43.328;6.668;2023-01-29T02:17:56;102093.78;;;5.52;57.93
77776;BME280;66965;43.328;6.668;2023-01-29T02:20:29;102089.00;;;5.30;58.10
77776;BME280;66965;43.328;6.668;2023-01-29T02:31:00;102098.69;;;5.38;58.76
77776;BME280;66965;43.328;6.668;2023-01-29T02:39:03;102098.72;;;4.61;60.56
77776;BME280;66965;43.328;6.668;2023-01-29T02:41:58;102097.41;;;4.42;60.81
77776;BME280;66965;43.328;6.668;2023-01-29T02:44:39;102101.25;;;4.58;60.84
77776;BME280;66965;43.328;6.668;2023-01-29T02:47:28;102093.06;;;4.41;61.29
77776;BME280;66965;43.328;6.668;2023-01-29T02:50:11;102098.56;;;4.55;60.35
77776;BME280;66965;43.328;6.668;2023-01-29T02:53:01;102099.81;;;4.70;60.34
77776;BME280;66965;43.328;6.668;2023-01-29T02:55:45;102096.31;;;4.68;60.99
77776;BME280;66965;43.328;6.668;2023-01-29T03:00:48;102102.22;;;4.63;60.46
77776;BME280;66965;43.328;6.668;2023-01-29T03:03:17;102100.59;;;4.32;62.38
77776;BME280;66965;43.328;6.668;2023-01-29T03:05:57;102101.41;;;4.30;61.80
77776;BME280;66965;43.328;6.668;2023-01-29T03:08:34;102104.75;;;4.60;60.98
77776;BME280;66965;43.328;6.668;2023-01-29T03:11:09;102111.78;;;4.64;60.88
77776;BME280;66965;43.328;6.668;2023-01-29T03:14:01;102117.53;;;4.88;60.53
77776;BME280;66965;43.328;6.668;2023-01-29T03:16:36;102120.50;;;4.67;59.77
77776;BME280;66965;43.328;6.668;2023-01-29T03:21:43;102119.75;;;4.36;60.56
77776;BME280;66965;43.328;6.668;2023-01-29T03:24:44;102113.59;;;4.32;61.04
77776;BME280;66965;43.328;6.668;2023-01-29T03:27:40;102110.72;;;4.22;60.84
77776;BME280;66965;43.328;6.668;2023-01-29T03:30:27;102113.81;;;4.40;61.30
77776;BME280;66965;43.328;6.668;2023-01-29T03:33:15;102111.53;;;4.19;61.50
77776;BME280;66965;43.328;6.668;2023-01-29T03:35:50;102109.19;;;4.28;60.67
77776;BME280;66965;43.328;6.668;2023-01-29T03:38:18;102118.38;;;4.50;60.11
77776;BME280;66965;43.328;6.668;2023-01-29T03:43:24;102117.56;;;4.52;59.98
77776;BME280;66965;43.328;6.668;2023-01-29T03:51:53;102104.78;;;4.97;57.54
77776;BME280;66965;43.328;6.668;2023-01-29T03:56:58;102112.66;;;5.02;57.38
77776;BME280;66965;43.328;6.668;2023-01-29T03:59:38;102117.25;;;5.13;58.65
77776;BME280;66965;43.328;6.668;2023-01-29T04:02:20;102115.69;;;5.21;58.56
77776;BME280;66965;43.328;6.668;2023-01-29T04:04:56;102115.78;;;4.87;59.48
77776;BME280;66965;43.328;6.668;2023-01-29T04:07:23;102122.19;;;4.64;60.78
77776;BME280;66965;43.328;6.668;2023-01-29T04:10:00;102111.44;;;4.86;60.66
77776;BME280;66965;43.328;6.668;2023-01-29T04:12:35;102123.47;;;4.83;59.93
77776;BME280;66965;43.328;6.668;2023-01-29T04:15:02;102118.91;;;5.11;59.67
77776;BME280;66965;43.328;6.668;2023-01-29T04:17:34;102114.66;;;5.15;59.58
77776;BME280;66965;43.328;6.668;2023-01-29T04:20:02;102115.94;;;4.95;59.62
77776;BME280;66965;43.328;6.668;2023-01-29T04:22:33;102126.47;;;4.99;59.95
77776;BME280;66965;43.328;6.668;2023-01-29T04:25:02;102122.53;;;5.16;58.57
77776;BME280;66965;43.328;6.668;2023-01-29T04:35:27;102121.94;;;4.53;59.81
77776;BME280;66965;43.328;6.668;2023-01-29T04:38:53;102129.91;;;4.62;59.50
77776;BME280;66965;43.328;6.668;2023-01-29T04:43:41;102127.38;;;4.65;58.22
77776;BME280;66965;43.328;6.668;2023-01-29T04:54:53;102120.06;;;4.48;60.25
77776;BME280;66965;43.328;6.668;2023-01-29T04:57:09;102117.78;;;4.61;60.24
77776;BME280;66965;43.328;6.668;2023-01-29T04:59:45;102120.25;;;4.57;60.27
77776;BME280;66965;43.328;6.668;2023-01-29T05:02:13;102117.88;;;4.66;60.46
77776;BME280;66965;43.328;6.668;2023-01-29T05:04:39;102122.59;;;4.46;60.23
77776;BME280;66965;43.328;6.668;2023-01-29T05:07:09;102128.75;;;4.50;60.36
77776;BME280;66965;43.328;6.668;2023-01-29T05:09:36;102132.78;;;4.39;59.85
77776;BME280;66965;43.328;6.668;2023-01-29T05:12:06;102138.50;;;4.60;60.47
77776;BME280;66965;43.328;6.668;2023-01-29T05:14:33;102131.09;;;4.41;60.31
77776;BME280;66965;43.328;6.668;2023-01-29T05:17:03;102142.69;;;4.53;60.50
77776;BME280;66965;43.328;6.668;2023-01-29T05:19:31;102140.59;;;4.40;61.05
77776;BME280;66965;43.328;6.668;2023-01-29T05:21:57;102150.84;;;4.68;60.07
77776;BME280;66965;43.328;6.668;2023-01-29T05:24:24;102148.34;;;4.73;59.46
77776;BME280;66965;43.328;6.668;2023-01-29T05:26:51;102154.31;;;4.69;59.84
77776;BME280;66965;43.328;6.668;2023-01-29T05:29:36;102147.94;;;4.56;60.02
77776;BME280;66965;43.328;6.668;2023-01-29T05:32:01;102156.19;;;4.74;60.61
77776;BME280;66965;43.328;6.668;2023-01-29T05:34:27;102157.00;;;4.72;60.98
77776;BME280;66965;43.328;6.668;2023-01-29T05:36:53;102156.91;;;4.69;61.03
77776;BME280;66965;43.328;6.668;2023-01-29T05:39:18;102157.41;;;4.89;60.12
77776;BME280;66965;43.328;6.668;2023-01-29T05:41:44;102161.56;;;4.82;61.01
77776;BME280;66965;43.328;6.668;2023-01-29T05:44:10;102160.81;;;4.86;61.59
77776;BME280;66965;43.328;6.668;2023-01-29T05:46:36;102155.88;;;4.98;60.57
77776;BME280;66965;43.328;6.668;2023-01-29T05:49:01;102157.81;;;5.08;59.91
77776;BME280;66965;43.328;6.668;2023-01-29T05:51:27;102168.09;;;5.02;59.31
77776;BME280;66965;43.328;6.668;2023-01-29T05:53:52;102174.59;;;5.22;59.01
77776;BME280;66965;43.328;6.668;2023-01-29T05:56:18;102169.97;;;5.08;58.51
77776;BME280;66965;43.328;6.668;2023-01-29T05:58:43;102168.19;;;5.05;58.54
77776;BME280;66965;43.328;6.668;2023-01-29T06:01:11;102182.28;;;5.16;59.07
77776;BME280;66965;43.328;6.668;2023-01-29T06:03:37;102186.41;;;5.08;58.45
77776;BME280;66965;43.328;6.668;2023-01-29T06:06:02;102187.28;;;5.09;58.95
77776;BME280;66965;43.328;6.668;2023-01-29T06:08:28;102195.56;;;4.93;58.95
77776;BME280;66965;43.328;6.668;2023-01-29T06:10:53;102190.69;;;5.05;58.36
77776;BME280;66965;43.328;6.668;2023-01-29T06:13:18;102194.16;;;5.05;58.78
77776;BME280;66965;43.328;6.668;2023-01-29T06:15:44;102194.66;;;4.91;59.56
77776;BME280;66965;43.328;6.668;2023-01-29T06:18:09;102198.22;;;4.94;59.22
77776;BME280;66965;43.328;6.668;2023-01-29T06:20:35;102198.31;;;4.99;58.79
77776;BME280;66965;43.328;6.668;2023-01-29T06:23:01;102201.56;;;4.89;59.19
77776;BME280;66965;43.328;6.668;2023-01-29T06:25:26;102204.81;;;4.82;59.23
77776;BME280;66965;43.328;6.668;2023-01-29T06:27:52;102208.22;;;4.79;59.77
77776;BME280;66965;43.328;6.668;2023-01-29T06:30:17;102209.00;;;4.75;59.96
77776;BME280;66965;43.328;6.668;2023-01-29T06:32:42;102222.47;;;4.60;59.26
77776;BME280;66965;43.328;6.668;2023-01-29T06:35:08;102226.50;;;4.82;58.70
77776;BME280;66965;43.328;6.668;2023-01-29T06:37:35;102234.03;;;4.73;58.71
77776;BME280;66965;43.328;6.668;2023-01-29T06:40:01;102232.84;;;4.26;59.79
77776;BME280;66965;43.328;6.668;2023-01-29T06:42:26;102236.38;;;4.30;59.66
77776;BME280;66965;43.328;6.668;2023-01-29T06:44:55;102239.25;;;4.40;59.75
77776;BME280;66965;43.328;6.668;2023-01-29T06:47:21;102252.94;;;4.35;60.10
77776;BME280;66965;43.328;6.668;2023-01-29T06:49:46;102246.31;;;4.46;59.68
77776;BME280;66965;43.328;6.668;2023-01-29T06:52:12;102253.41;;;4.20;59.39
77776;BME280;66965;43.328;6.668;2023-01-29T06:54:37;102254.25;;;4.19;59.22
77776;BME280;66965;43.328;6.668;2023-01-29T06:57:02;102242.50;;;4.32;59.53
77776;BME280;66965;43.328;6.668;2023-01-29T06:59:28;102247.91;;;4.41;58.56
77776;BME280;66965;43.328;6.668;2023-01-29T07:01:53;102262.13;;;4.53;58.96
77776;BME280;66965;43.328;6.668;2023-01-29T07:04:19;102264.09;;;4.63;58.66
77776;BME280;66965;43.328;6.668;2023-01-29T07:06:44;102269.91;;;4.53;58.67
77776;BME280;66965;43.328;6.668;2023-01-29T07:09:13;102267.97;;;4.46;59.07
77776;BME280;66965;43.328;6.668;2023-01-29T07:11:38;102263.56;;;4.75;58.79
77776;BME280;66965;43.328;6.668;2023-01-29T07:14:04;102278.00;;;4.65;58.56
77776;BME280;66965;43.328;6.668;2023-01-29T07:16:30;102273.88;;;4.41;59.34
77776;BME280;66965;43.328;6.668;2023-01-29T07:18:55;102278.53;;;4.54;59.16
77776;BME280;66965;43.328;6.668;2023-01-29T07:21:21;102278.06;;;4.67;59.37
77776;BME280;66965;43.328;6.668;2023-01-29T07:23:46;102276.97;;;4.59;59.47
77776;BME280;66965;43.328;6.668;2023-01-29T07:26:12;102289.44;;;4.72;59.08
77776;BME280;66965;43.328;6.668;2023-01-29T07:28:38;102296.47;;;4.76;59.28
77776;BME280;66965;43.328;6.668;2023-01-29T07:31:04;102303.38;;;4.75;59.75
77776;BME280;66965;43.328;6.668;2023-01-29T07:33:30;102303.06;;;4.98;59.71
77776;BME280;66965;43.328;6.668;2023-01-29T07:35:56;102312.38;;;4.88;58.57
77776;BME280;66965;43.328;6.668;2023-01-29T07:38:21;102311.09;;;5.05;58.25
77776;BME280;66965;43.328;6.668;2023-01-29T07:40:47;102309.91;;;5.27;57.49
77776;BME280;66965;43.328;6.668;2023-01-29T07:43:13;102309.97;;;5.30;57.86
77776;BME280;66965;43.328;6.668;2023-01-29T07:45:39;102320.94;;;5.18;57.44
77776;BME280;66965;43.328;6.668;2023-01-29T07:48:06;102318.84;;;5.39;57.27
77776;BME280;66965;43.328;6.668;2023-01-29T07:50:33;102317.22;;;5.43;57.40
77776;BME280;66965;43.328;6.668;2023-01-29T07:52:59;102331.66;;;5.68;56.73
77776;BME280;66965;43.328;6.668;2023-01-29T07:55:24;102329.06;;;5.68;57.05
77776;BME280;66965;43.328;6.668;2023-01-29T07:57:56;102336.59;;;5.93;57.08
77776;BME280;66965;43.328;6.668;2023-01-29T08:00:22;102338.59;;;6.05;57.29
77776;BME280;66965;43.328;6.668;2023-01-29T08:02:48;102336.28;;;6.18;56.94
77776;BME280;66965;43.328;6.668;2023-01-29T08:05:13;102345.22;;;6.31;56.58
77776;BME280;66965;43.328;6.668;2023-01-29T08:07:38;102349.78;;;6.41;56.73
77776;BME280;66965;43.328;6.668;2023-01-29T08:10:04;102340.59;;;6.60;56.28
77776;BME280;66965;43.328;6.668;2023-01-29T08:12:30;102342.75;;;6.82;56.46
77776;BME280;66965;43.328;6.668;2023-01-29T08:14:55;102352.00;;;7.12;55.74
77776;BME280;66965;43.328;6.668;2023-01-29T08:17:20;102350.75;;;7.40;53.51
77776;BME280;66965;43.328;6.668;2023-01-29T08:19:46;102357.03;;;7.54;52.22
77776;BME280;66965;43.328;6.668;2023-01-29T08:22:11;102362.63;;;7.77;50.70
77776;BME280;66965;43.328;6.668;2023-01-29T08:24:37;102370.19;;;8.19;51.46
77776;BME280;66965;43.328;6.668;2023-01-29T08:27:02;102368.41;;;8.18;50.78
77776;BME280;66965;43.328;6.668;2023-01-29T08:29:28;102361.44;;;8.84;48.79
77776;BME280;66965;43.328;6.668;2023-01-29T08:31:53;102366.22;;;9.29;46.96
77776;BME280;66965;43.328;6.668;2023-01-29T08:34:19;102372.13;;;9.10;47.44
77776;BME280;66965;43.328;6.668;2023-01-29T08:36:44;102379.69;;;9.75;46.89
77776;BME280;66965;43.328;6.668;2023-01-29T08:39:10;102374.31;;;9.58;45.44
77776;BME280;66965;43.328;6.668;2023-01-29T08:41:35;102371.59;;;9.46;45.00
77776;BME280;66965;43.328;6.668;2023-01-29T08:44:01;102373.44;;;9.59;44.76
77776;BME280;66965;43.328;6.668;2023-01-29T08:46:28;102379.69;;;9.76;44.32
77776;BME280;66965;43.328;6.668;2023-01-29T08:48:54;102391.00;;;9.72;44.15
77776;BME280;66965;43.328;6.668;2023-01-29T08:51:20;102383.59;;;10.42;42.97
77776;BME280;66965;43.328;6.668;2023-01-29T08:53:46;102384.59;;;10.76;41.89
77776;BME280;66965;43.328;6.668;2023-01-29T08:56:11;102379.34;;;10.77;42.31
77776;BME280;66965;43.328;6.668;2023-01-29T08:58:37;102388.09;;;10.73;41.53
77776;BME280;66965;43.328;6.668;2023-01-29T09:01:10;102393.41;;;10.90;41.97
77776;BME280;66965;43.328;6.668;2023-01-29T09:03:35;102392.56;;;11.35;40.48
77776;BME280;66965;43.328;6.668;2023-01-29T09:06:02;102399.56;;;11.26;40.98
77776;BME280;66965;43.328;6.668;2023-01-29T09:08:27;102400.47;;;11.59;39.93
77776;BME280;66965;43.328;6.668;2023-01-29T09:10:53;102405.75;;;11.72;40.24
77776;BME280;66965;43.328;6.668;2023-01-29T09:13:18;102401.34;;;11.89;39.35
77776;BME280;66965;43.328;6.668;2023-01-29T09:15:43;102408.34;;;12.00;39.15
77776;BME280;66965;43.328;6.668;2023-01-29T09:18:09;102414.47;;;11.41;40.09
77776;BME280;66965;43.328;6.668;2023-01-29T09:20:34;102421.47;;;11.48;40.82
77776;BME280;66965;43.328;6.668;2023-01-29T09:23:08;102422.31;;;11.23;41.14
77776;BME280;66965;43.328;6.668;2023-01-29T09:25:34;102421.28;;;10.66;42.12
77776;BME280;66965;43.328;6.668;2023-01-29T09:27:59;102420.34;;;10.55;42.62
77776;BME280;66965;43.328;6.668;2023-01-29T09:30:25;102425.50;;;10.39;42.35
77776;BME280;66965;43.328;6.668;2023-01-29T09:32:50;102424.75;;;10.59;41.90
77776;BME280;66965;43.328;6.668;2023-01-29T09:35:16;102428.28;;;10.77;41.87
77776;BME280;66965;43.328;6.668;2023-01-29T09:37:41;102428.19;;;10.52;42.32
77776;BME280;66965;43.328;6.668;2023-01-29T09:40:16;102432.72;;;10.79;42.87
77776;BME280;66965;43.328;6.668;2023-01-29T09:42:49;102435.34;;;10.88;42.55
77776;BME280;66965;43.328;6.668;2023-01-29T09:45:20;102441.50;;;11.02;43.58
77776;BME280;66965;43.328;6.668;2023-01-29T09:47:49;102440.56;;;10.81;43.49
77776;BME280;66965;43.328;6.668;2023-01-29T09:55:24;102452.78;;;10.73;43.96
77776;BME280;66965;43.328;6.668;2023-01-29T09:57:52;102444.06;;;10.74;43.85
77776;BME280;66965;43.328;6.668;2023-01-29T10:00:39;102452.69;;;10.51;44.59
77776;BME280;66965;43.328;6.668;2023-01-29T10:06:07;102449.06;;;10.31;44.67
77776;BME280;66965;43.328;6.668;2023-01-29T10:14:27;102450.72;;;10.16;43.49
77776;BME280;66965;43.328;6.668;2023-01-29T10:25:18;102449.97;;;10.39;42.38
77776;BME280;66965;43.328;6.668;2023-01-29T10:27:48;102443.09;;;10.58;42.14
77776;BME280;66965;43.328;6.668;2023-01-29T10:30:30;102444.94;;;10.76;42.99
77776;BME280;66965;43.328;6.668;2023-01-29T10:33:01;102453.72;;;10.90;43.66
77776;BME280;66965;43.328;6.668;2023-01-29T10:35:31;102461.63;;;10.97;42.08
77776;BME280;66965;43.328;6.668;2023-01-29T10:38:07;102456.31;;;10.84;39.40
77776;BME280;66965;43.328;6.668;2023-01-29T10:41:10;102447.56;;;10.88;38.92
77776;BME280;66965;43.328;6.668;2023-01-29T10:43:39;102441.53;;;11.17;40.07
77776;BME280;66965;43.328;6.668;2023-01-29T10:49:55;102441.50;;;10.98;40.15
77776;BME280;66965;43.328;6.668;2023-01-29T11:00:57;102432.84;;;11.56;40.00
77776;BME280;66965;43.328;6.668;2023-01-29T11:03:31;102431.97;;;11.62;39.08
77776;BME280;66965;43.328;6.668;2023-01-29T11:12:03;102424.16;;;11.71;39.26
77776;BME280;66965;43.328;6.668;2023-01-29T11:14:45;102424.13;;;11.89;39.21
77776;BME280;66965;43.328;6.668;2023-01-29T11:17:21;102425.81;;;12.22;38.52
77776;BME280;66965;43.328;6.668;2023-01-29T11:19:49;102426.72;;;12.21;37.20
77776;BME280;66965;43.328;6.668;2023-01-29T11:22:21;102420.56;;;12.23;38.50
77776;BME280;66965;43.328;6.668;2023-01-29T11:25:17;102411.81;;;12.26;38.43
77776;BME280;66965;43.328;6.668;2023-01-29T11:28:01;102416.19;;;12.25;37.83
77776;BME280;66965;43.328;6.668;2023-01-29T11:30:40;102417.91;;;12.32;37.68
77776;BME280;66965;43.328;6.668;2023-01-29T11:33:23;102410.84;;;12.43;37.64
77776;BME280;66965;43.328;6.668;2023-01-29T11:35:49;102410.94;;;12.13;36.62
77776;BME280;66965;43.328;6.668;2023-01-29T11:38:18;102410.97;;;12.09;36.26
77776;BME280;66965;43.328;6.668;2023-01-29T11:40:46;102398.72;;;12.02;37.25
77776;BME280;66965;43.328;6.668;2023-01-29T11:45:55;102400.41;;;12.19;37.73
77776;BME280;66965;43.328;6.668;2023-01-29T11:48:26;102400.41;;;12.16;36.13
77776;BME280;66965;43.328;6.668;2023-01-29T11:50:57;102398.69;;;12.15;37.99
77776;BME280;66965;43.328;6.668;2023-01-29T11:53:42;102392.50;;;12.28;37.63
77776;BME280;66965;43.328;6.668;2023-01-29T11:56:27;102389.81;;;12.51;37.75
77776;BME280;66965;43.328;6.668;2023-01-29T11:58:55;102393.16;;;12.79;37.86
77776;BME280;66965;43.328;6.668;2023-01-29T12:01:36;102392.22;;;12.95;37.51
77776;BME280;66965;43.328;6.668;2023-01-29T12:04:17;102387.59;;;13.35;38.33
77776;BME280;66965;43.328;6.668;2023-01-29T12:06:45;102379.84;;;13.17;41.67
77776;BME280;66965;43.328;6.668;2023-01-29T12:09:19;102369.09;;;13.44;40.81
77776;BME280;66965;43.328;6.668;2023-01-29T12:11:46;102370.69;;;13.60;41.29
77776;BME280;66965;43.328;6.668;2023-01-29T12:14:29;102372.47;;;13.59;41.77
77776;BME280;66965;43.328;6.668;2023-01-29T12:17:14;102356.84;;;13.38;39.17
77776;BME280;66965;43.328;6.668;2023-01-29T12:22:17;102347.03;;;13.54;41.77
77776;BME280;66965;43.328;6.668;2023-01-29T12:30:04;102332.97;;;14.37;38.83
77776;BME280;66965;43.328;6.668;2023-01-29T12:35:13;102331.03;;;14.51;38.61
77776;BME280;66965;43.328;6.668;2023-01-29T12:40:31;102318.84;;;14.41;38.79
77776;BME280;66965;43.328;6.668;2023-01-29T12:43:02;102327.34;;;14.64;37.60
77776;BME280;66965;43.328;6.668;2023-01-29T12:45:29;102314.50;;;14.39;38.80
77776;BME280;66965;43.328;6.668;2023-01-29T12:48:01;102324.75;;;14.60;39.30
77776;BME280;66965;43.328;6.668;2023-01-29T12:50:35;102310.16;;;14.96;34.28
77776;BME280;66965;43.328;6.668;2023-01-29T12:55:36;102303.94;;;15.53;36.60
77776;BME280;66965;43.328;6.668;2023-01-29T12:58:02;102298.88;;;14.84;37.38
77776;BME280;66965;43.328;6.668;2023-01-29T13:00:37;102295.59;;;14.67;36.92
77776;BME280;66965;43.328;6.668;2023-01-29T13:03:18;102284.91;;;14.12;39.71
77776;BME280;66965;43.328;6.668;2023-01-29T13:08:23;102288.00;;;13.72;41.51
77776;BME280;66965;43.328;6.668;2023-01-29T13:10:52;102288.78;;;13.81;42.13
77776;BME280;66965;43.328;6.668;2023-01-29T13:13:50;102278.63;;;14.21;41.01
77776;BME280;66965;43.328;6.668;2023-01-29T13:16:19;102286.44;;;14.93;39.49
77776;BME280;66965;43.328;6.668;2023-01-29T13:18:53;102284.69;;;15.91;36.12
77776;BME280;66965;43.328;6.668;2023-01-29T13:21:23;102274.59;;;16.89;34.88
77776;BME280;66965;43.328;6.668;2023-01-29T13:23:55;102278.16;;;16.50;36.62
77776;BME280;66965;43.328;6.668;2023-01-29T13:26:24;102271.84;;;17.63;34.04
77776;BME280;66965;43.328;6.668;2023-01-29T13:28:51;102272.97;;;17.54;35.77
77776;BME280;66965;43.328;6.668;2023-01-29T13:31:31;102269.88;;;18.88;34.06
77776;BME280;66965;43.328;6.668;2023-01-29T13:36:43;102276.22;;;19.10;29.62
77776;BME280;66965;43.328;6.668;2023-01-29T13:39:30;102269.88;;;19.67;28.73
77776;BME280;66965;43.328;6.668;2023-01-29T13:41:59;102278.22;;;19.04;29.67
77776;BME280;66965;43.328;6.668;2023-01-29T13:44:36;102270.31;;;19.28;30.32
77776;BME280;66965;43.328;6.668;2023-01-29T13:47:03;102279.94;;;19.82;27.97
77776;BME280;66965;43.328;6.668;2023-01-29T13:49:43;102277.38;;;20.50;28.36
77776;BME280;66965;43.328;6.668;2023-01-29T13:54:56;102271.88;;;19.08;30.88
77776;BME280;66965;43.328;6.668;2023-01-29T14:07:56;102265.91;;;20.01;31.14
77776;BME280;66965;43.328;6.668;2023-01-29T14:10:24;102273.63;;;21.41;28.06
77776;BME280;66965;43.328;6.668;2023-01-29T14:12:52;102269.97;;;22.22;25.02
77776;BME280;66965;43.328;6.668;2023-01-29T14:15:24;102276.72;;;22.11;25.73
77776;BME280;66965;43.328;6.668;2023-01-29T14:17:59;102278.06;;;22.21;25.45
77776;BME280;66965;43.328;6.668;2023-01-29T14:20:51;102276.03;;;22.82;24.85
77776;BME280;66965;43.328;6.668;2023-01-29T14:26:19;102278.56;;;22.85;24.62
77776;BME280;66965;43.328;6.668;2023-01-29T14:34:04;102287.59;;;23.35;24.15
77776;BME280;66965;43.328;6.668;2023-01-29T14:36:38;102278.03;;;23.98;23.58
77776;BME280;66965;43.328;6.668;2023-01-29T14:39:05;102288.00;;;23.62;24.94
77776;BME280;66965;43.328;6.668;2023-01-29T14:41:32;102287.84;;;21.81;26.48
77776;BME280;66965;43.328;6.668;2023-01-29T14:47:01;102280.38;;;22.47;27.25
77776;BME280;66965;43.328;6.668;2023-01-29T14:52:12;102282.88;;;22.87;25.81
77776;BME280;66965;43.328;6.668;2023-01-29T14:54:39;102285.38;;;23.26;25.01
77776;BME280;66965;43.328;6.668;2023-01-29T14:57:09;102278.44;;;23.05;24.99
77776;BME280;66965;43.328;6.668;2023-01-29T15:02:30;102272.69;;;20.10;29.57
77776;BME280;66965;43.328;6.668;2023-01-29T15:05:02;102279.03;;;18.52;32.79
77776;BME280;66965;43.328;6.668;2023-01-29T15:12:59;102262.09;;;15.76;38.92
77776;BME280;66965;43.328;6.668;2023-01-29T15:15:37;102266.97;;;14.98;40.62
77776;BME280;66965;43.328;6.668;2023-01-29T15:18:14;102266.97;;;14.40;42.42
77776;BME280;66965;43.328;6.668;2023-01-29T15:20:42;102264.56;;;14.22;43.12
77776;BME280;66965;43.328;6.668;2023-01-29T15:23:27;102271.59;;;14.23;43.54
77776;BME280;66965;43.328;6.668;2023-01-29T15:25:58;102273.28;;;14.29;43.40
77776;BME280;66965;43.328;6.668;2023-01-29T15:28:30;102275.25;;;14.10;44.02
77776;BME280;66965;43.328;6.668;2023-01-29T15:30:59;102280.91;;;13.80;45.42
77776;BME280;66965;43.328;6.668;2023-01-29T15:33:26;102271.94;;;13.11;45.15
77776;BME280;66965;43.328;6.668;2023-01-29T15:35:57;102262.28;;;13.11;47.48
77776;BME280;66965;43.328;6.668;2023-01-29T15:38:24;102267.03;;;12.53;47.05
77776;BME280;66965;43.328;6.668;2023-01-29T15:40:59;102270.47;;;12.66;48.68
77776;BME280;66965;43.328;6.668;2023-01-29T15:43:29;102274.81;;;12.73;48.16